Flight Track Log - Related Links

Times and Time Zones

All times are in EDT time to prevent confusion due to time zone crossing. See the TAM3147 flight status page for this flight to view local times or setup timezone preferences in your user account.

Time Position Orientation Groundspeed Altitude Reporting Facility
EDT Latitude Longitude Course Direction KTS MPH feet Rate Location/Type
Mon 07:23:00 AM -20.7934 -40.8544 225° Southwest  Level Estimated
Mon 07:24:00 AM -20.8379 -40.9020 225° Southwest  Level Estimated
Mon 07:25:00 AM -20.8824 -40.9495 225° Southwest  Level Estimated
Mon 07:26:00 AM -20.9269 -40.9971 225° Southwest  Level Estimated
Mon 07:27:00 AM -20.9714 -41.0447 225° Southwest  Level Estimated
Mon 07:28:00 AM -21.0159 -41.0923 225° Southwest  Level Estimated
Mon 07:29:00 AM -21.0603 -41.1400 225° Southwest  Level Estimated
Mon 07:30:00 AM -21.1048 -41.1877 225° Southwest  Level Estimated
Mon 07:31:00 AM -21.1492 -41.2354 225° Southwest  Level Estimated
Mon 07:32:00 AM -21.1936 -41.2831 225° Southwest  Level Estimated
Mon 07:33:00 AM -21.2380 -41.3309 225° Southwest  Level Estimated
Mon 07:34:00 AM -21.2824 -41.3787 225° Southwest  Level Estimated
Mon 07:35:00 AM -21.3268 -41.4265 225° Southwest  Level Estimated
Mon 07:36:00 AM -21.3711 -41.4744 225° Southwest  Level Estimated
Mon 07:37:00 AM -21.4155 -41.5223 225° Southwest  Level Estimated
Mon 07:38:00 AM -21.4598 -41.5702 225° Southwest  Level Estimated
Mon 07:39:00 AM -21.5042 -41.6181 225° Southwest  Level Estimated
Mon 07:40:00 AM -21.5485 -41.6661 225° Southwest  Level Estimated
Mon 07:41:00 AM -21.5928 -41.7141 225° Southwest  Level Estimated
Mon 07:42:00 AM -21.6371 -41.7622 225° Southwest  Level Estimated
Mon 07:43:00 AM -21.6813 -41.8102 225° Southwest  Level Estimated
Mon 07:44:00 AM -21.7256 -41.8583 225° Southwest  Level Estimated
Mon 07:45:00 AM -21.7698 -41.9064 225° Southwest  Level Estimated
Mon 07:46:00 AM -21.8141 -41.9546 225° Southwest  Level Estimated
Mon 07:47:00 AM -21.8583 -42.0028 225° Southwest  Level Estimated
Mon 07:48:00 AM -21.9025 -42.0510 225° Southwest  Level Estimated
Mon 07:49:00 AM -21.9466 -42.0992 225° Southwest  Level Estimated
Mon 07:50:00 AM -21.9908 -42.1475 225° Southwest  Level Estimated
Mon 07:51:00 AM -22.0350 -42.1958 225° Southwest  Level Estimated
Mon 07:52:00 AM -22.0791 -42.2441 225° Southwest  Level Estimated
Mon 07:53:00 AM -22.1232 -42.2925 225° Southwest  Level Estimated
Mon 07:54:00 AM -22.1674 -42.3409 225° Southwest  Level Estimated
Mon 07:55:00 AM -22.2115 -42.3893 225° Southwest  Level Estimated
Mon 07:56:00 AM -22.2556 -42.4378 225° Southwest  Level Estimated
Mon 07:57:00 AM -22.2996 -42.4862 226° Southwest  Level Estimated
Mon 07:58:00 AM -22.3437 -42.5348 226° Southwest  Level Estimated
Mon 07:59:00 AM -22.3877 -42.5833 226° Southwest  Level Estimated
Mon 08:00:00 AM -22.4317 -42.6319 226° Southwest  Level Estimated
Mon 08:01:00 AM -22.4758 -42.6805 226° Southwest  Level Estimated
Mon 08:02:00 AM -22.5198 -42.7291 226° Southwest  Level Estimated
Mon 08:03:00 AM -22.5637 -42.7778 226° Southwest  Level Estimated
Mon 08:04:00 AM -22.6077 -42.8265 226° Southwest  Level Estimated
Mon 08:05:00 AM -22.6517 -42.8752 226° Southwest  Level Estimated
Mon 08:06:00 AM -22.6956 -42.9240 226° Southwest  Level Estimated
Mon 08:07:00 AM -22.7395 -42.9728 226° Southwest  Level Estimated
Mon 08:08:00 AM -22.7834 -43.0216 226° Southwest  Level Estimated
Mon 08:09:00 AM -22.8273 -43.0705 226° Southwest  Level Estimated
Mon 08:10:00 AM -22.8712 -43.1194 226° Southwest  Level Estimated
Mon 08:11:00 AM -22.9105 -43.1631 226° Southwest  Level Estimated
Mon 08:12:00 AM -22.9105 -43.1631 250° West  Level Estimated
Mon 08:13:00 AM -22.9105 -43.1631 250° West  Level Estimated
Mon 08:14:00 AM -22.9105 -43.1631 250° West  Level Estimated
Mon 08:15:00 AM -22.9105 -43.1631 250° West  Level Estimated
Mon 08:16:00 AM -22.9105 -43.1631 250° West  Level Estimated
Mon 08:17:00 AM -22.9105 -43.1631 250° West  Level Estimated
Mon 08:18:00 AM -22.9105 -43.1631 250° West  Level Estimated
Mon 08:19:00 AM -22.9105 -43.1631 250° West  Level Estimated
Mon 08:20:00 AM -22.9105 -43.1631 250° West  Level Estimated
Mon 08:21:00 AM -22.9105 -43.1631 250° West  Level Estimated
Mon 08:22:00 AM -22.9105 -43.1631 250° West  Level Estimated
Mon 08:23:00 AM -22.9105 -43.1631 250° West  Level Estimated
Mon 08:24:00 AM -22.9105 -43.1631 250° West  Level Estimated
Mon 08:25:00 AM -22.9105 -43.1631 250° West  Level Estimated
Mon 08:26:00 AM -22.9105 -43.1631 250° West  Level Estimated
Mon 08:27:00 AM -22.9105 -43.1631 250° West  Level Estimated

Login

Don't have an account? Register now (free) for customized features, flight alerts, and more!